Time;durP1;ratioP1;P1;durP2;ratioP2;P2;SDS_P1;SDS_P2;PMS_P1;PMS_P2;Temp;Humidity;BMP_temperature;BMP_pressure;BME280_temperature;BME280_humidity;BME280_pressure;Samples;Min_cycle;Max_cycle;Signal;HPM_P1;HPM_P2
2024/04/19 00:01:42;;;;;;;;;14.00;12.25;;;;;;;;5449458;26;10881;-82
2024/04/19 00:04:08;;;;;;;;;12.25;10.50;;;;;;;;5449965;26;11221;-83
2024/04/19 00:06:37;;;;;;;;;13.25;13.25;;;;;;;;5429112;26;11001;-83
2024/04/19 00:09:04;;;;;;;;;10.25;10.25;;;;;;;;5449868;26;11104;-82
2024/04/19 00:11:32;;;;;;;;;14.00;12.75;;;;;;;;5450347;26;11051;-82
2024/04/19 00:14:02;;;;;;;;;9.25;9.25;;;;;;;;5450173;26;11040;-83
2024/04/19 00:16:30;;;;;;;;;10.75;10.00;;;;;;;;5451830;26;11009;-82
2024/04/19 00:19:00;;;;;;;;;8.50;8.50;;;;;;;;5450057;26;10973;-82
2024/04/19 00:21:29;;;;;;;;;8.00;5.75;;;;;;;;5434664;26;11756;-83
2024/04/19 00:23:55;;;;;;;;;14.75;10.25;;;;;;;;5447910;26;11020;-83
2024/04/19 00:26:24;;;;;;;;;6.50;6.50;;;;;;;;5436547;26;11057;-83
2024/04/19 00:28:50;;;;;;;;;13.00;10.75;;;;;;;;5446894;26;10989;-82
2024/04/19 00:31:19;;;;;;;;;9.50;8.25;;;;;;;;5450073;26;10925;-83
2024/04/19 00:33:46;;;;;;;;;11.00;9.50;;;;;;;;5430940;26;11023;-84
2024/04/19 00:36:17;;;;;;;;;8.25;8.25;;;;;;;;5433747;26;10963;-83
2024/04/19 00:38:43;;;;;;;;;7.75;7.75;;;;;;;;5443787;26;10891;-84
2024/04/19 00:41:12;;;;;;;;;9.00;9.00;;;;;;;;5438146;26;10587;-82
2024/04/19 00:43:39;;;;;;;;;8.50;8.50;;;;;;;;5448566;26;10829;-83
2024/04/19 00:46:08;;;;;;;;;9.00;9.00;;;;;;;;5450031;26;10851;-84
2024/04/19 00:48:34;;;;;;;;;9.50;8.00;;;;;;;;5451689;26;10852;-85
2024/04/19 00:51:04;;;;;;;;;8.25;8.25;;;;;;;;5453259;26;10855;-84
2024/04/19 00:53:34;;;;;;;;;12.00;11.00;;;;;;;;5449079;26;10715;-84
2024/04/19 00:56:06;;;;;;;;;9.25;9.25;;;;;;;;5450897;26;10712;-84
2024/04/19 00:58:32;;;;;;;;;8.50;8.50;;;;;;;;5449829;26;10898;-85
2024/04/19 01:01:05;;;;;;;;;8.75;8.75;;;;;;;;5448699;26;10573;-85
2024/04/19 01:03:32;;;;;;;;;13.25;9.25;;;;;;;;5430353;26;10950;-86
2024/04/19 01:06:01;;;;;;;;;9.50;8.75;;;;;;;;5450089;26;11680;-84
2024/04/19 01:08:29;;;;;;;;;10.50;10.50;;;;;;;;5451455;26;10894;-85
2024/04/19 01:11:01;;;;;;;;;11.75;10.75;;;;;;;;5447265;26;10905;-85
2024/04/19 01:13:27;;;;;;;;;7.75;7.75;;;;;;;;5427401;26;10911;-86
2024/04/19 01:15:56;;;;;;;;;9.00;9.00;;;;;;;;5446642;26;10820;-83
2024/04/19 01:18:23;;;;;;;;;9.75;9.50;;;;;;;;5424559;26;10920;-84
2024/04/19 01:20:52;;;;;;;;;9.00;6.25;;;;;;;;5447650;26;10932;-84
2024/04/19 01:23:19;;;;;;;;;10.00;10.00;;;;;;;;5447410;26;10714;-80
2024/04/19 01:25:51;;;;;;;;;9.75;8.25;;;;;;;;5441252;26;11638;-81
2024/04/19 01:28:20;;;;;;;;;8.75;8.75;;;;;;;;5425764;26;10793;-82
2024/04/19 01:30:49;;;;;;;;;10.50;10.50;;;;;;;;5436980;26;11584;-82
2024/04/19 01:33:15;;;;;;;;;9.25;9.00;;;;;;;;5426704;26;10802;-81
2024/04/19 01:35:49;;;;;;;;;10.25;10.25;;;;;;;;5430524;26;10788;-81
2024/04/19 01:38:15;;;;;;;;;10.75;10.75;;;;;;;;5447076;26;10808;-81
2024/04/19 01:40:44;;;;;;;;;9.75;9.75;;;;;;;;5433802;26;10891;-81
2024/04/19 01:43:16;;;;;;;;;8.00;8.00;;;;;;;;5431310;26;11086;-82
2024/04/19 01:45:45;;;;;;;;;9.25;9.25;;;;;;;;5436539;26;11389;-84
2024/04/19 01:48:17;;;;;;;;;8.25;8.00;;;;;;;;5428511;26;10882;-84
2024/04/19 01:50:43;;;;;;;;;9.50;8.50;;;;;;;;5448496;26;10839;-82
2024/04/19 01:53:12;;;;;;;;;11.00;10.00;;;;;;;;5421048;26;10969;-82
2024/04/19 01:55:38;;;;;;;;;5.25;5.25;;;;;;;;5433200;26;10994;-81
2024/04/19 01:58:07;;;;;;;;;7.50;7.50;;;;;;;;5441707;26;10720;-82
2024/04/19 02:00:33;;;;;;;;;6.25;6.25;;;;;;;;5433350;26;10600;-82
2024/04/19 02:03:05;;;;;;;;;9.00;7.50;;;;;;;;5448163;26;10671;-81
2024/04/19 02:05:33;;;;;;;;;9.25;7.50;;;;;;;;5449216;26;10899;-86
2024/04/19 02:08:02;;;;;;;;;12.00;10.25;;;;;;;;5448721;26;10782;-83
2024/04/19 02:10:28;;;;;;;;;10.00;9.00;;;;;;;;5427590;26;10944;-86
2024/04/19 02:12:58;;;;;;;;;7.00;7.00;;;;;;;;5448076;26;10730;-83
2024/04/19 02:15:25;;;;;;;;;5.00;5.00;;;;;;;;5429650;26;10741;-82
2024/04/19 02:17:54;;;;;;;;;6.25;6.25;;;;;;;;5431617;26;10782;-84
2024/04/19 02:20:22;;;;;;;;;9.50;9.50;;;;;;;;5432824;26;10764;-83
2024/04/19 02:22:51;;;;;;;;;9.00;9.00;;;;;;;;5430608;26;10784;-82
2024/04/19 02:25:17;;;;;;;;;7.50;7.50;;;;;;;;5452141;26;10775;-83
2024/04/19 02:33:15;;;;;;;;;9.00;9.00;;;;;;;;5435785;26;10819;-83
2024/04/19 02:35:47;;;;;;;;;9.50;9.00;;;;;;;;5450742;26;10856;-83
2024/04/19 02:38:16;;;;;;;;;8.50;7.75;;;;;;;;5451280;26;10861;-84
2024/04/19 02:40:48;;;;;;;;;7.75;7.75;;;;;;;;5451182;26;10577;-85
2024/04/19 02:43:17;;;;;;;;;9.00;9.00;;;;;;;;5451518;26;10768;-85
2024/04/19 02:45:46;;;;;;;;;5.75;5.50;;;;;;;;5453232;26;10721;-83
2024/04/19 02:48:18;;;;;;;;;8.75;8.00;;;;;;;;5453383;26;10916;-83
2024/04/19 02:50:50;;;;;;;;;10.00;8.75;;;;;;;;5453305;26;10811;-86
2024/04/19 02:53:19;;;;;;;;;10.75;6.25;;;;;;;;5454572;26;10886;-85
2024/04/19 02:55:50;;;;;;;;;5.00;5.00;;;;;;;;5435016;26;10881;-82
2024/04/19 02:58:19;;;;;;;;;9.50;6.00;;;;;;;;5432156;26;10700;-85
2024/04/19 03:00:47;;;;;;;;;7.25;6.25;;;;;;;;5454350;26;10722;-86
2024/04/19 03:03:16;;;;;;;;;5.50;5.00;;;;;;;;5456869;26;10851;-84
2024/04/19 03:05:53;;;;;;;;;5.00;5.00;;;;;;;;5446364;26;10779;-82
2024/04/19 03:08:23;;;;;;;;;6.50;6.50;;;;;;;;5434868;26;10635;-82
2024/04/19 03:10:52;;;;;;;;;5.00;5.00;;;;;;;;5447312;26;10819;-84
2024/04/19 03:13:21;;;;;;;;;9.00;7.50;;;;;;;;5449432;26;10954;-82
2024/04/19 03:15:50;;;;;;;;;6.25;6.25;;;;;;;;5451264;26;10705;-83
2024/04/19 03:18:19;;;;;;;;;8.75;8.75;;;;;;;;5450956;26;10834;-82
2024/04/19 03:20:50;;;;;;;;;8.25;6.00;;;;;;;;5451007;26;10895;-81
2024/04/19 03:23:19;;;;;;;;;4.75;4.75;;;;;;;;5450270;26;10788;-82
2024/04/19 03:25:45;;;;;;;;;8.25;7.00;;;;;;;;5451170;26;11805;-84
2024/04/19 03:28:14;;;;;;;;;3.25;3.25;;;;;;;;5443794;26;11655;-84
2024/04/19 03:30:49;;;;;;;;;4.75;2.75;;;;;;;;5446872;26;10565;-83
2024/04/19 03:33:18;;;;;;;;;5.50;3.50;;;;;;;;5429409;26;11518;-82
2024/04/19 03:35:52;;;;;;;;;3.75;3.00;;;;;;;;5451095;26;10700;-83
2024/04/19 03:38:22;;;;;;;;;3.50;3.50;;;;;;;;5439185;26;10674;-83
2024/04/19 03:40:55;;;;;;;;;5.75;5.75;;;;;;;;5442351;26;10725;-83
2024/04/19 03:43:24;;;;;;;;;4.50;4.50;;;;;;;;5419766;26;10744;-82
2024/04/19 03:45:51;;;;;;;;;7.75;4.75;;;;;;;;5444631;26;10880;-82
2024/04/19 03:48:17;;;;;;;;;4.50;4.50;;;;;;;;5449468;26;10663;-82
2024/04/19 03:50:51;;;;;;;;;4.00;4.00;;;;;;;;5449263;26;10841;-82
2024/04/19 03:53:20;;;;;;;;;5.00;5.00;;;;;;;;5434393;26;10724;-82
2024/04/19 03:55:49;;;;;;;;;5.00;5.00;;;;;;;;5440458;26;10707;-83
2024/04/19 03:58:18;;;;;;;;;4.00;4.00;;;;;;;;5444513;26;10813;-83
2024/04/19 04:00:50;;;;;;;;;7.25;7.25;;;;;;;;5450226;26;10566;-81
2024/04/19 04:03:19;;;;;;;;;4.00;4.00;;;;;;;;5432030;26;10846;-83
2024/04/19 04:05:55;;;;;;;;;3.75;3.75;;;;;;;;5442176;26;10752;-83
2024/04/19 04:08:24;;;;;;;;;4.50;3.00;;;;;;;;5435279;26;10693;-82
2024/04/19 04:10:52;;;;;;;;;4.50;4.00;;;;;;;;5436864;26;10562;-82
2024/04/19 04:13:21;;;;;;;;;8.00;6.75;;;;;;;;5449882;26;10719;-84
2024/04/19 04:15:50;;;;;;;;;7.75;7.75;;;;;;;;5429710;26;10777;-82
2024/04/19 04:18:19;;;;;;;;;2.00;2.00;;;;;;;;5448112;26;10830;-81
2024/04/19 04:20:48;;;;;;;;;5.00;5.00;;;;;;;;5448591;26;10695;-84
2024/04/19 04:23:20;;;;;;;;;4.00;4.00;;;;;;;;5447643;26;10618;-84
2024/04/19 04:25:49;;;;;;;;;8.50;5.75;;;;;;;;5449416;26;10560;-84
2024/04/19 04:28:18;;;;;;;;;4.75;4.75;;;;;;;;5449173;26;10924;-83
2024/04/19 04:30:46;;;;;;;;;3.25;3.25;;;;;;;;5449405;26;11338;-85
2024/04/19 04:33:15;;;;;;;;;7.75;6.00;;;;;;;;5449460;26;10518;-82
2024/04/19 04:35:47;;;;;;;;;3.50;3.50;;;;;;;;5450657;26;10698;-83
2024/04/19 04:38:19;;;;;;;;;6.25;6.25;;;;;;;;5448723;26;10736;-83
2024/04/19 04:40:48;;;;;;;;;4.00;4.00;;;;;;;;5451069;26;10809;-83
2024/04/19 04:43:17;;;;;;;;;5.00;3.00;;;;;;;;5450421;26;10797;-87
2024/04/19 04:45:47;;;;;;;;;7.50;4.75;;;;;;;;5451265;26;10733;-87
2024/04/19 04:48:17;;;;;;;;;5.25;5.25;;;;;;;;5448294;26;10820;-88
2024/04/19 04:50:46;;;;;;;;;9.00;6.50;;;;;;;;5449442;26;10826;-87
2024/04/19 04:53:13;;;;;;;;;5.00;5.00;;;;;;;;5418821;26;10692;-85
2024/04/19 04:55:44;;;;;;;;;6.00;5.00;;;;;;;;5443616;26;10712;-80
2024/04/19 04:58:17;;;;;;;;;8.50;8.00;;;;;;;;5447911;26;10690;-80
2024/04/19 05:00:47;;;;;;;;;5.75;5.75;;;;;;;;5426140;26;10576;-79
2024/04/19 05:03:16;;;;;;;;;7.25;5.50;;;;;;;;5429673;26;10724;-74
2024/04/19 05:05:44;;;;;;;;;6.00;6.00;;;;;;;;5438372;26;10763;-75
2024/04/19 05:08:13;;;;;;;;;8.00;5.75;;;;;;;;5414721;26;10756;-78
2024/04/19 05:10:45;;;;;;;;;5.75;5.75;;;;;;;;5425767;26;10794;-76
2024/04/19 05:13:18;;;;;;;;;5.00;5.00;;;;;;;;5448563;26;10737;-79
2024/04/19 05:15:49;;;;;;;;;7.25;4.75;;;;;;;;5428104;26;10788;-77
2024/04/19 05:18:20;;;;;;;;;5.50;5.50;;;;;;;;5445926;26;10878;-76
2024/04/19 05:20:49;;;;;;;;;7.25;7.25;;;;;;;;5430677;26;10988;-80
2024/04/19 05:23:18;;;;;;;;;7.25;4.50;;;;;;;;5444317;26;10718;-77
2024/04/19 05:25:51;;;;;;;;;5.00;5.00;;;;;;;;5415963;26;10649;-75
2024/04/19 05:28:21;;;;;;;;;4.00;2.00;;;;;;;;5442390;26;10663;-77
2024/04/19 05:30:52;;;;;;;;;6.25;6.25;;;;;;;;5447299;26;10408;-77
2024/04/19 05:33:23;;;;;;;;;10.00;8.50;;;;;;;;5446405;26;10719;-76
2024/04/19 05:35:52;;;;;;;;;6.75;6.75;;;;;;;;5444797;26;11539;-80
2024/04/19 05:38:21;;;;;;;;;8.00;6.75;;;;;;;;5443895;26;10837;-77
2024/04/19 05:40:55;;;;;;;;;7.25;5.00;;;;;;;;5448040;26;10700;-77
2024/04/19 05:43:24;;;;;;;;;7.50;7.50;;;;;;;;5446535;26;10706;-81
2024/04/19 05:45:53;;;;;;;;;9.75;8.00;;;;;;;;5448047;26;10827;-79
2024/04/19 05:48:22;;;;;;;;;7.50;7.50;;;;;;;;5448644;26;10667;-80
2024/04/19 05:50:50;;;;;;;;;10.00;10.00;;;;;;;;5443367;26;10781;-77
2024/04/19 05:53:22;;;;;;;;;15.25;11.25;;;;;;;;5415792;26;10920;-79
2024/04/19 05:55:51;;;;;;;;;8.75;6.50;;;;;;;;5422877;26;10900;-79
2024/04/19 05:58:29;;;;;;;;;9.50;8.25;;;;;;;;5430368;26;10698;-75
2024/04/19 06:00:58;;;;;;;;;10.00;9.00;;;;;;;;5417547;26;10477;-81
2024/04/19 06:03:27;;;;;;;;;9.50;9.50;;;;;;;;5440920;26;10640;-82
2024/04/19 06:05:56;;;;;;;;;7.00;7.00;;;;;;;;5449259;26;10695;-79
2024/04/19 06:08:24;;;;;;;;;9.00;9.00;;;;;;;;5427699;26;10408;-78
2024/04/19 06:10:53;;;;;;;;;9.50;9.50;;;;;;;;5427491;26;10551;-81
2024/04/19 06:13:22;;;;;;;;;12.00;12.00;;;;;;;;5427137;26;10932;-87
2024/04/19 06:15:54;;;;;;;;;9.00;9.00;;;;;;;;5434455;26;10757;-78
2024/04/19 06:18:26;;;;;;;;;6.75;6.75;;;;;;;;5419600;26;10706;-78
2024/04/19 06:20:55;;;;;;;;;8.75;8.75;;;;;;;;5416098;26;11659;-75
2024/04/19 06:23:25;;;;;;;;;9.00;9.00;;;;;;;;5443845;26;10704;-77
2024/04/19 06:25:55;;;;;;;;;10.00;8.75;;;;;;;;5432473;26;10567;-78
2024/04/19 06:28:24;;;;;;;;;8.50;8.50;;;;;;;;5427765;26;10787;-77
2024/04/19 06:30:56;;;;;;;;;15.75;10.00;;;;;;;;5418243;26;10568;-79
2024/04/19 06:33:28;;;;;;;;;11.50;10.50;;;;;;;;5423444;26;10818;-76
2024/04/19 06:36:00;;;;;;;;;10.00;10.00;;;;;;;;5429510;26;10870;-75
2024/04/19 06:38:29;;;;;;;;;9.25;9.25;;;;;;;;5448854;26;10844;-75
2024/04/19 06:40:58;;;;;;;;;8.75;8.75;;;;;;;;5432701;26;10671;-75
2024/04/19 06:43:24;;;;;;;;;10.00;10.00;;;;;;;;5425317;26;10577;-75
2024/04/19 06:45:58;;;;;;;;;8.75;8.25;;;;;;;;5432754;26;10578;-75
2024/04/19 06:48:27;;;;;;;;;12.50;12.50;;;;;;;;5439123;26;10544;-76
2024/04/19 06:50:58;;;;;;;;;10.25;9.75;;;;;;;;5446394;26;10528;-78
2024/04/19 06:53:26;;;;;;;;;11.00;11.00;;;;;;;;5446266;26;10408;-77
2024/04/19 06:55:55;;;;;;;;;8.50;8.50;;;;;;;;5445558;26;10603;-77
2024/04/19 06:58:30;;;;;;;;;10.75;10.50;;;;;;;;5446122;26;11402;-76
2024/04/19 07:01:09;;;;;;;;;19.00;12.00;;;;;;;;5424026;26;11207;-76
2024/04/19 07:03:38;;;;;;;;;14.75;12.25;;;;;;;;5448746;26;10535;-77
2024/04/19 07:06:13;;;;;;;;;12.75;12.75;;;;;;;;5449975;26;10607;-77
2024/04/19 07:08:43;;;;;;;;;11.00;11.00;;;;;;;;5449796;26;10677;-77
2024/04/19 07:11:12;;;;;;;;;11.25;11.25;;;;;;;;5450354;26;10716;-78
2024/04/19 07:13:46;;;;;;;;;18.00;13.25;;;;;;;;5448346;26;10610;-77
2024/04/19 07:16:23;;;;;;;;;11.75;9.75;;;;;;;;5449567;26;10699;-78
2024/04/19 07:18:52;;;;;;;;;12.25;12.25;;;;;;;;5447104;26;11494;-77
2024/04/19 07:21:24;;;;;;;;;13.50;13.50;;;;;;;;5449336;26;10673;-78
2024/04/19 07:23:53;;;;;;;;;12.25;11.00;;;;;;;;5448948;26;11427;-78
2024/04/19 07:26:24;;;;;;;;;16.50;11.25;;;;;;;;5449065;26;10604;-77
2024/04/19 07:28:54;;;;;;;;;14.75;13.75;;;;;;;;5449258;26;10582;-77
2024/04/19 07:31:25;;;;;;;;;11.75;11.75;;;;;;;;5448253;26;10287;-78
2024/04/19 07:33:54;;;;;;;;;10.00;10.00;;;;;;;;5449305;26;10509;-78
2024/04/19 07:36:24;;;;;;;;;13.75;12.00;;;;;;;;5449324;26;10547;-78
2024/04/19 07:38:57;;;;;;;;;17.00;13.75;;;;;;;;5449187;26;10355;-78
2024/04/19 07:41:45;;;;;;;;;;;;;;;;;;;;;
2024/04/19 07:44:14;;;;;;;;;15.25;12.25;;;;;;;;5449316;26;10278;-78
2024/04/19 07:46:46;;;;;;;;;17.50;11.50;;;;;;;;5448827;26;10336;-78
2024/04/19 07:49:18;;;;;;;;;18.75;15.75;;;;;;;;5448168;26;10204;-79
2024/04/19 07:51:47;;;;;;;;;10.75;10.75;;;;;;;;5448963;26;10343;-78
2024/04/19 07:54:16;;;;;;;;;11.75;11.75;;;;;;;;5426839;26;10455;-79
2024/04/19 07:56:46;;;;;;;;;11.75;11.50;;;;;;;;5448798;26;10315;-79
2024/04/19 07:59:15;;;;;;;;;12.50;10.75;;;;;;;;5418682;26;10262;-79
2024/04/19 08:01:47;;;;;;;;;11.25;11.25;;;;;;;;5435316;26;10058;-78
2024/04/19 08:04:27;;;;;;;;;11.75;11.75;;;;;;;;5427412;26;10111;-79
2024/04/19 08:07:00;;;;;;;;;15.25;10.75;;;;;;;;5448810;26;10112;-78
2024/04/19 08:09:31;;;;;;;;;11.25;9.75;;;;;;;;5449851;26;10113;-79
2024/04/19 08:12:03;;;;;;;;;16.25;14.50;;;;;;;;5427889;26;10178;-79
2024/04/19 08:14:32;;;;;;;;;18.50;18.50;;;;;;;;5448049;26;10453;-79
2024/04/19 08:17:03;;;;;;;;;19.00;17.25;;;;;;;;5426845;26;10508;-79
2024/04/19 08:19:32;;;;;;;;;13.00;13.00;;;;;;;;5434238;26;10470;-79
2024/04/19 08:22:01;;;;;;;;;14.75;14.00;;;;;;;;5440803;26;10373;-80
2024/04/19 08:24:32;;;;;;;;;12.25;11.25;;;;;;;;5425758;26;10336;-82
2024/04/19 08:27:01;;;;;;;;;11.25;10.25;;;;;;;;5448296;26;10246;-76
2024/04/19 08:29:32;;;;;;;;;7.75;7.25;;;;;;;;5448050;26;10012;-77
2024/04/19 08:32:03;;;;;;;;;8.75;8.75;;;;;;;;5446710;26;9677;-77
2024/04/19 08:34:38;;;;;;;;;8.50;8.50;;;;;;;;5447381;26;9945;-79
2024/04/19 08:37:07;;;;;;;;;8.75;7.25;;;;;;;;5447901;26;9981;-78
2024/04/19 08:39:36;;;;;;;;;7.00;7.00;;;;;;;;5447087;26;9784;-78
2024/04/19 08:42:07;;;;;;;;;6.00;6.00;;;;;;;;5448266;26;9830;-78
2024/04/19 08:44:37;;;;;;;;;7.00;5.50;;;;;;;;5447739;26;9758;-81
2024/04/19 08:47:09;;;;;;;;;4.00;4.00;;;;;;;;5438265;26;9709;-75
2024/04/19 08:49:36;;;;;;;;;3.00;3.00;;;;;;;;5437437;26;9731;-77
2024/04/19 08:52:06;;;;;;;;;5.00;5.00;;;;;;;;5446652;26;9719;-76
2024/04/19 08:54:37;;;;;;;;;4.25;4.00;;;;;;;;5435991;26;9632;-76
2024/04/19 08:57:07;;;;;;;;;6.50;5.00;;;;;;;;5419924;26;9599;-76
2024/04/19 08:59:36;;;;;;;;;4.00;4.00;;;;;;;;5438818;26;9563;-76
2024/04/19 09:02:07;;;;;;;;;4.00;3.50;;;;;;;;5421917;26;9501;-76
2024/04/19 09:04:43;;;;;;;;;8.00;8.00;;;;;;;;5446072;26;9496;-76
2024/04/19 09:07:11;;;;;;;;;6.75;5.00;;;;;;;;5444285;26;9537;-76
2024/04/19 09:09:40;;;;;;;;;6.00;4.00;;;;;;;;5432281;26;9542;-76
2024/04/19 09:12:10;;;;;;;;;5.00;5.00;;;;;;;;5447646;26;9553;-76
2024/04/19 09:14:42;;;;;;;;;1.75;1.75;;;;;;;;5448064;26;9784;-76
2024/04/19 09:17:15;;;;;;;;;3.75;3.75;;;;;;;;5446956;26;9396;-77
2024/04/19 09:19:45;;;;;;;;;8.00;5.00;;;;;;;;5447630;26;9491;-76
2024/04/19 09:22:14;;;;;;;;;5.75;5.75;;;;;;;;5432058;26;10313;-77
2024/04/19 09:24:45;;;;;;;;;3.00;3.00;;;;;;;;5447471;26;10172;-77
2024/04/19 09:27:13;;;;;;;;;4.00;4.00;;;;;;;;5447648;26;9336;-76
2024/04/19 09:29:42;;;;;;;;;2.67;2.67;;;;;;;;5447178;26;9312;-76
2024/04/19 09:32:14;;;;;;;;;4.00;4.00;;;;;;;;5446949;26;9093;-76
2024/04/19 09:34:47;;;;;;;;;5.00;4.33;;;;;;;;5447340;26;9248;-77
2024/04/19 09:37:17;;;;;;;;;4.00;4.00;;;;;;;;5447911;26;9166;-77
2024/04/19 09:39:43;;;;;;;;;4.00;4.00;;;;;;;;5447039;26;9155;-77
2024/04/19 09:42:14;;;;;;;;;2.33;2.33;;;;;;;;5447304;26;9178;-77
2024/04/19 09:44:44;;;;;;;;;3.67;3.33;;;;;;;;5446267;26;9227;-78
2024/04/19 09:47:17;;;;;;;;;6.00;6.00;;;;;;;;5447250;26;9201;-77
2024/04/19 09:49:48;;;;;;;;;5.00;5.00;;;;;;;;5447281;26;9248;-77
2024/04/19 09:52:22;;;;;;;;;6.25;6.25;;;;;;;;5446310;26;9242;-78
2024/04/19 09:55:00;;;;;;;;;6.25;6.25;;;;;;;;5428745;26;9398;-77
2024/04/19 09:57:29;;;;;;;;;7.50;6.75;;;;;;;;5424221;26;9425;-75
2024/04/19 09:59:59;;;;;;;;;8.00;6.00;;;;;;;;5447630;26;9483;-77
2024/04/19 10:02:33;;;;;;;;;6.00;6.00;;;;;;;;5446577;26;9373;-78
2024/04/19 10:05:02;;;;;;;;;6.00;6.00;;;;;;;;5448188;26;9741;-78
2024/04/19 10:07:31;;;;;;;;;7.00;6.00;;;;;;;;5436231;26;9686;-79
2024/04/19 10:10:02;;;;;;;;;8.00;8.00;;;;;;;;5432367;26;9556;-75
2024/04/19 10:12:31;;;;;;;;;5.50;5.50;;;;;;;;5427631;26;10395;-76
2024/04/19 10:14:59;;;;;;;;;7.75;7.75;;;;;;;;5447433;26;9457;-77
2024/04/19 10:17:31;;;;;;;;;6.00;6.00;;;;;;;;5421223;26;9744;-76
2024/04/19 10:20:02;;;;;;;;;7.00;7.00;;;;;;;;5436211;26;9436;-77
2024/04/19 10:22:32;;;;;;;;;9.00;9.00;;;;;;;;5435533;26;9536;-74
2024/04/19 10:25:01;;;;;;;;;8.00;8.00;;;;;;;;5441947;26;9444;-74
2024/04/19 10:27:31;;;;;;;;;9.00;7.50;;;;;;;;5437473;26;9592;-76
2024/04/19 10:30:00;;;;;;;;;10.75;10.75;;;;;;;;5432938;26;9495;-76
2024/04/19 10:32:32;;;;;;;;;9.00;9.00;;;;;;;;5438748;26;9481;-75
2024/04/19 10:35:00;;;;;;;;;8.50;7.50;;;;;;;;5435562;26;9497;-75
2024/04/19 10:37:29;;;;;;;;;8.00;8.00;;;;;;;;5448507;26;9556;-74
2024/04/19 10:39:58;;;;;;;;;10.50;10.50;;;;;;;;5443865;26;9551;-76
2024/04/19 10:42:30;;;;;;;;;5.50;5.50;;;;;;;;5443167;26;9801;-75
2024/04/19 10:44:59;;;;;;;;;11.75;7.75;;;;;;;;5433040;26;9621;-74
2024/04/19 10:47:33;;;;;;;;;16.75;13.75;;;;;;;;5449201;26;9771;-76
2024/04/19 10:50:02;;;;;;;;;8.25;8.25;;;;;;;;5448742;26;9865;-73
2024/04/19 10:52:31;;;;;;;;;7.50;7.50;;;;;;;;5444878;26;10543;-73
2024/04/19 10:55:00;;;;;;;;;7.50;7.50;;;;;;;;5438034;26;9599;-75
2024/04/19 10:57:31;;;;;;;;;7.00;7.00;;;;;;;;5447171;26;10565;-76
2024/04/19 11:00:00;;;;;;;;;6.00;6.00;;;;;;;;5451135;26;9610;-83
2024/04/19 11:02:31;;;;;;;;;7.00;7.00;;;;;;;;5428635;26;9523;-84
2024/04/19 11:05:02;;;;;;;;;8.50;8.50;;;;;;;;5431083;26;9703;-85
2024/04/19 11:07:33;;;;;;;;;9.00;7.50;;;;;;;;5436549;26;9601;-81
2024/04/19 11:10:04;;;;;;;;;5.75;5.75;;;;;;;;5451490;26;9591;-86
2024/04/19 11:12:33;;;;;;;;;8.75;7.00;;;;;;;;5452722;26;9549;-79
2024/04/19 11:15:06;;;;;;;;;9.50;7.25;;;;;;;;5438041;26;9479;-81
2024/04/19 11:17:35;;;;;;;;;6.75;6.75;;;;;;;;5438783;26;9534;-81
2024/04/19 11:20:08;;;;;;;;;7.00;6.25;;;;;;;;5429476;26;9550;-80
2024/04/19 11:22:37;;;;;;;;;7.25;6.25;;;;;;;;5450302;26;9621;-80
2024/04/19 11:25:07;;;;;;;;;4.00;4.00;;;;;;;;5444940;26;9465;-81
2024/04/19 11:27:33;;;;;;;;;6.50;4.75;;;;;;;;5442296;26;9536;-82
2024/04/19 11:30:02;;;;;;;;;5.00;5.00;;;;;;;;5443835;26;9450;-80
2024/04/19 11:32:33;;;;;;;;;7.25;5.75;;;;;;;;5429655;26;9478;-81
2024/04/19 11:35:02;;;;;;;;;5.00;4.00;;;;;;;;5442448;26;9471;-82
2024/04/19 11:37:34;;;;;;;;;4.00;4.00;;;;;;;;5432172;26;9418;-82
2024/04/19 11:40:03;;;;;;;;;3.00;3.00;;;;;;;;5426255;26;9323;-84
2024/04/19 11:42:32;;;;;;;;;4.00;4.00;;;;;;;;5434460;26;9928;-83
2024/04/19 11:45:01;;;;;;;;;3.00;3.00;;;;;;;;5451503;26;9309;-82
2024/04/19 11:47:30;;;;;;;;;4.67;4.67;;;;;;;;5449891;26;9253;-83
2024/04/19 11:50:01;;;;;;;;;4.00;4.00;;;;;;;;5451962;26;9361;-84
2024/04/19 11:52:32;;;;;;;;;5.00;5.00;;;;;;;;5451211;26;9370;-84
2024/04/19 11:55:01;;;;;;;;;3.00;3.00;;;;;;;;5435202;26;9414;-83
2024/04/19 11:57:30;;;;;;;;;5.00;5.00;;;;;;;;5426859;26;9182;-84
2024/04/19 11:59:59;;;;;;;;;4.67;4.00;;;;;;;;5435177;26;9207;-84
2024/04/19 12:02:31;;;;;;;;;3.00;3.00;;;;;;;;5451481;26;9074;-82
2024/04/19 12:04:59;;;;;;;;;6.00;4.00;;;;;;;;5430504;26;9187;-81
2024/04/19 12:07:28;;;;;;;;;4.00;4.00;;;;;;;;5416740;26;9204;-82
2024/04/19 12:10:00;;;;;;;;;4.33;3.00;;;;;;;;5417152;26;9182;-82
2024/04/19 12:12:30;;;;;;;;;3.00;3.00;;;;;;;;5438304;26;9096;-81
2024/04/19 12:14:58;;;;;;;;;4.00;4.00;;;;;;;;5440737;26;9194;-81
2024/04/19 12:17:30;;;;;;;;;6.33;4.33;;;;;;;;5449390;26;9192;-81
2024/04/19 12:20:00;;;;;;;;;4.67;4.33;;;;;;;;5449365;26;9225;-83
2024/04/19 12:22:32;;;;;;;;;2.00;2.00;;;;;;;;5431552;26;9153;-81
2024/04/19 12:25:03;;;;;;;;;5.00;5.00;;;;;;;;5449242;26;9053;-81
2024/04/19 12:27:32;;;;;;;;;3.00;3.00;;;;;;;;5448822;26;9371;-82
2024/04/19 12:30:04;;;;;;;;;4.67;4.67;;;;;;;;5449062;26;9294;-80
2024/04/19 12:32:33;;;;;;;;;4.00;4.00;;;;;;;;5448790;26;9242;-80
2024/04/19 12:35:02;;;;;;;;;7.33;5.33;;;;;;;;5449177;26;9205;-81
2024/04/19 12:37:31;;;;;;;;;5.67;4.33;;;;;;;;5449813;26;9270;-80
2024/04/19 12:40:02;;;;;;;;;5.50;4.00;;;;;;;;5449860;26;9330;-82
2024/04/19 12:42:31;;;;;;;;;4.00;4.00;;;;;;;;5430507;26;9247;-81
2024/04/19 12:45:00;;;;;;;;;6.00;4.00;;;;;;;;5422606;26;9410;-80
2024/04/19 12:47:32;;;;;;;;;5.00;5.00;;;;;;;;5441424;26;9340;-81
2024/04/19 12:50:01;;;;;;;;;4.00;4.00;;;;;;;;5448892;26;9209;-81
2024/04/19 12:52:30;;;;;;;;;5.67;5.67;;;;;;;;5445313;26;9321;-81
2024/04/19 12:54:59;;;;;;;;;9.00;6.00;;;;;;;;5433125;26;9402;-80
2024/04/19 12:57:30;;;;;;;;;6.00;6.00;;;;;;;;5443547;26;9207;-81
2024/04/19 13:00:02;;;;;;;;;7.00;5.33;;;;;;;;5414424;26;9218;-80
2024/04/19 13:02:31;;;;;;;;;5.00;5.00;;;;;;;;5445033;26;9170;-82
2024/04/19 13:05:00;;;;;;;;;5.00;5.00;;;;;;;;5428569;26;9282;-82
2024/04/19 13:07:30;;;;;;;;;8.67;5.00;;;;;;;;5448632;26;9279;-81
2024/04/19 13:10:02;;;;;;;;;6.67;6.00;;;;;;;;5426760;26;9289;-80
2024/04/19 13:12:33;;;;;;;;;7.00;7.00;;;;;;;;5448943;26;9199;-81
2024/04/19 13:15:02;;;;;;;;;4.67;4.00;;;;;;;;5426994;26;9362;-82
2024/04/19 13:17:31;;;;;;;;;6.67;5.33;;;;;;;;5449318;26;9245;-81
2024/04/19 13:20:00;;;;;;;;;6.00;4.67;;;;;;;;5447164;26;9260;-83
2024/04/19 13:22:30;;;;;;;;;5.00;5.00;;;;;;;;5431591;26;9193;-80
2024/04/19 13:24:59;;;;;;;;;5.67;5.67;;;;;;;;5449470;26;9256;-82
2024/04/19 13:27:34;;;;;;;;;5.67;5.67;;;;;;;;5450146;26;9202;-83
2024/04/19 13:30:03;;;;;;;;;8.33;4.67;;;;;;;;5450214;26;9166;-83
2024/04/19 13:32:33;;;;;;;;;4.00;4.00;;;;;;;;5430453;26;9169;-83
2024/04/19 13:35:02;;;;;;;;;5.00;5.00;;;;;;;;5450742;26;9090;-82
2024/04/19 13:37:31;;;;;;;;;6.67;6.67;;;;;;;;5452846;26;9263;-84
2024/04/19 13:40:00;;;;;;;;;6.33;6.33;;;;;;;;5422959;26;9289;-85
2024/04/19 13:42:34;;;;;;;;;5.00;5.00;;;;;;;;5444598;26;9257;-83
2024/04/19 13:45:03;;;;;;;;;5.00;5.00;;;;;;;;5452639;26;9160;-82
2024/04/19 13:47:32;;;;;;;;;9.00;5.67;;;;;;;;5451761;26;9087;-84
2024/04/19 13:50:05;;;;;;;;;8.00;6.00;;;;;;;;5451291;26;9075;-83
2024/04/19 13:52:33;;;;;;;;;7.00;7.00;;;;;;;;5448866;26;8964;-81
2024/04/19 13:55:06;;;;;;;;;7.00;6.00;;;;;;;;5421552;26;9029;-81
2024/04/19 13:57:38;;;;;;;;;5.00;5.00;;;;;;;;5445131;26;8908;-81
2024/04/19 14:00:09;;;;;;;;;3.25;3.25;;;;;;;;5447604;26;8816;-81
2024/04/19 14:02:38;;;;;;;;;5.75;5.75;;;;;;;;5432187;26;8828;-81
2024/04/19 14:05:07;;;;;;;;;6.25;6.25;;;;;;;;5448185;26;8840;-81
2024/04/19 14:07:36;;;;;;;;;6.50;5.00;;;;;;;;5433809;26;8960;-83
2024/04/19 14:10:06;;;;;;;;;9.00;5.25;;;;;;;;5434691;26;8889;-82
2024/04/19 14:12:39;;;;;;;;;4.50;4.50;;;;;;;;5450578;26;8931;-82
2024/04/19 14:15:08;;;;;;;;;8.00;5.25;;;;;;;;5450873;26;8801;-82
2024/04/19 14:17:37;;;;;;;;;4.50;4.50;;;;;;;;5451023;26;8871;-82
2024/04/19 14:20:08;;;;;;;;;7.50;6.00;;;;;;;;5451445;26;8828;-83
2024/04/19 14:22:37;;;;;;;;;5.00;5.00;;;;;;;;5452388;26;9405;-82
2024/04/19 14:25:07;;;;;;;;;5.00;3.50;;;;;;;;5439415;26;8824;-81
2024/04/19 14:27:43;;;;;;;;;4.25;3.50;;;;;;;;5438645;26;8844;-82
2024/04/19 14:30:13;;;;;;;;;4.25;4.25;;;;;;;;5438844;26;8820;-82
2024/04/19 14:32:42;;;;;;;;;6.75;4.00;;;;;;;;5439907;26;8836;-80
2024/04/19 14:35:11;;;;;;;;;3.50;3.50;;;;;;;;5448082;26;8824;-82
2024/04/19 14:37:41;;;;;;;;;4.50;4.50;;;;;;;;5441892;26;8835;-82
2024/04/19 14:40:11;;;;;;;;;3.00;3.00;;;;;;;;5432953;26;8868;-82
2024/04/19 14:42:43;;;;;;;;;6.00;5.50;;;;;;;;5443882;26;9132;-82
2024/04/19 14:45:17;;;;;;;;;2.00;2.00;;;;;;;;5431028;26;8840;-81
2024/04/19 14:47:46;;;;;;;;;5.00;3.33;;;;;;;;5435076;26;8915;-83
2024/04/19 14:50:15;;;;;;;;;5.00;5.00;;;;;;;;5450887;26;8956;-82
2024/04/19 14:52:44;;;;;;;;;4.50;4.50;;;;;;;;5428499;26;8831;-82
2024/04/19 14:55:13;;;;;;;;;5.00;5.00;;;;;;;;5450678;26;8858;-81
2024/04/19 14:57:45;;;;;;;;;2.00;2.00;;;;;;;;5449717;26;8808;-82
2024/04/19 15:00:14;;;;;;;;;4.67;4.33;;;;;;;;5450366;26;8851;-82
2024/04/19 15:02:43;;;;;;;;;8.00;7.00;;;;;;;;5450294;26;8939;-82
2024/04/19 15:05:14;;;;;;;;;1.00;1.00;;;;;;;;5429291;26;9714;-82
2024/04/19 15:07:44;;;;;;;;;0.00;0.00;;;;;;;;5430048;26;8899;-82